createdAt,value
2022-12-17T00:02:34.971Z,101111.66
2022-12-17T00:05:22.663Z,101115.50
2022-12-17T00:08:14.959Z,101107.44
2022-12-17T00:11:00.705Z,101120.03
2022-12-17T00:13:46.609Z,101113.03
2022-12-17T00:16:33.467Z,101118.31
2022-12-17T00:19:28.961Z,101117.97
2022-12-17T00:22:14.877Z,101118.75
2022-12-17T00:25:01.724Z,101119.00
2022-12-17T00:27:48.383Z,101122.41
2022-12-17T00:30:37.524Z,101126.38
2022-12-17T00:33:23.401Z,101129.53
2022-12-17T00:36:12.183Z,101135.66
2022-12-17T00:38:58.466Z,101137.25
2022-12-17T00:41:45.236Z,101148.00
2022-12-17T00:44:31.232Z,101139.59
2022-12-17T00:47:16.811Z,101139.19
2022-12-17T00:50:02.430Z,101151.88
2022-12-17T00:52:49.927Z,101152.34
2022-12-17T00:55:36.042Z,101150.47
2022-12-17T00:58:22.074Z,101158.53
2022-12-17T01:01:10.059Z,101160.47
2022-12-17T01:03:56.102Z,101161.66
2022-12-17T01:06:42.495Z,101170.53
2022-12-17T01:09:30.161Z,101181.31
2022-12-17T01:12:15.923Z,101179.00
2022-12-17T01:15:01.874Z,101184.44
2022-12-17T01:17:47.995Z,101176.75
2022-12-17T01:20:36.626Z,101189.34
2022-12-17T01:23:26.733Z,101184.75
2022-12-17T01:26:15.799Z,101192.13
2022-12-17T01:29:03.402Z,101200.59
2022-12-17T01:31:49.904Z,101188.03
2022-12-17T01:34:38.508Z,101189.97
2022-12-17T01:37:24.532Z,101186.16
2022-12-17T01:40:11.853Z,101194.19
2022-12-17T01:43:01.832Z,101198.81
2022-12-17T01:45:55.493Z,101206.13
2022-12-17T01:48:49.188Z,101215.28
2022-12-17T01:51:36.984Z,101219.53
2022-12-17T01:54:23.710Z,101221.84
2022-12-17T01:57:09.885Z,101220.69
2022-12-17T02:00:03.543Z,101224.56
2022-12-17T02:02:59.604Z,101211.91
2022-12-17T02:05:57.440Z,101215.00
2022-12-17T02:08:51.684Z,101213.44
2022-12-17T02:11:45.537Z,101221.50
2022-12-17T02:14:40.417Z,101220.28
2022-12-17T02:17:33.737Z,101227.97
2022-12-17T02:20:32.736Z,101232.94
2022-12-17T02:23:29.274Z,101230.97
2022-12-17T02:26:21.386Z,101240.53
2022-12-17T02:29:11.098Z,101246.69
2022-12-17T02:32:00.435Z,101242.53
2022-12-17T02:34:47.844Z,101244.09
2022-12-17T02:37:34.227Z,101244.91
2022-12-17T02:40:21.779Z,101249.19
2022-12-17T02:43:08.411Z,101253.41
2022-12-17T02:45:58.956Z,101247.31
2022-12-17T02:48:45.838Z,101262.69
2022-12-17T02:51:32.114Z,101260.38
2022-12-17T02:54:21.624Z,101263.81
2022-12-17T02:57:07.738Z,101268.75
2022-12-17T02:59:53.504Z,101277.97
2022-12-17T03:02:41.743Z,101272.56
2022-12-17T03:05:44.676Z,101282.97
2022-12-17T03:08:42.680Z,101277.63
2022-12-17T03:11:28.769Z,101280.69
2022-12-17T03:14:14.456Z,101288.38
2022-12-17T03:17:00.688Z,101292.25
2022-12-17T03:19:48.087Z,101297.63
2022-12-17T03:22:36.511Z,101295.72
2022-12-17T03:25:30.754Z,101296.88
2022-12-17T03:28:22.742Z,101292.66
2022-12-17T03:31:09.711Z,101288.47
2022-12-17T03:33:55.473Z,101288.50
2022-12-17T03:36:42.918Z,101286.94
2022-12-17T03:39:30.572Z,101291.94
2022-12-17T03:42:16.249Z,101289.63
2022-12-17T03:45:02.286Z,101291.94
2022-12-17T03:47:50.236Z,101295.75
2022-12-17T03:50:37.352Z,101300.31
2022-12-17T03:53:24.675Z,101293.75
2022-12-17T03:56:10.394Z,101299.88
2022-12-17T03:58:56.483Z,101302.19
2022-12-17T04:01:42.949Z,101305.63
2022-12-17T04:04:31.819Z,101310.56
2022-12-17T04:07:17.508Z,101306.75
2022-12-17T04:10:04.811Z,101309.81
2022-12-17T04:12:50.643Z,101313.66
2022-12-17T04:15:37.226Z,101315.19
2022-12-17T04:18:26.357Z,101325.19
2022-12-17T04:21:12.260Z,101329.41
2022-12-17T04:24:09.531Z,101331.72
2022-12-17T04:26:58.061Z,101334.03
2022-12-17T04:29:43.808Z,101335.19
2022-12-17T04:32:34.902Z,101338.28
2022-12-17T04:35:21.311Z,101334.09
2022-12-17T04:38:08.793Z,101336.75
2022-12-17T04:40:55.007Z,101335.63
2022-12-17T04:43:43.577Z,101340.59
2022-12-17T04:46:29.137Z,101330.69
2022-12-17T04:49:15.439Z,101342.13
2022-12-17T04:52:00.943Z,101351.31
2022-12-17T04:54:46.829Z,101343.66
2022-12-17T04:57:33.034Z,101350.59
2022-12-17T05:00:20.743Z,101344.50
2022-12-17T05:03:06.864Z,101357.50
2022-12-17T05:05:52.982Z,101352.13
2022-12-17T05:08:41.539Z,101354.47
2022-12-17T05:11:27.205Z,101361.72
2022-12-17T05:14:13.044Z,101364.78
2022-12-17T05:17:01.378Z,101368.63
2022-12-17T05:19:48.728Z,101373.59
2022-12-17T05:22:33.911Z,101374.75
2022-12-17T05:25:19.872Z,101377.44
2022-12-17T05:28:05.826Z,101383.94
2022-12-17T05:30:52.023Z,101382.81
2022-12-17T05:33:39.523Z,101382.00
2022-12-17T05:36:26.251Z,101393.50
2022-12-17T05:39:12.012Z,101387.38
2022-12-17T05:41:57.898Z,101392.72
2022-12-17T05:44:43.953Z,101402.31
2022-12-17T05:47:30.607Z,101395.78
2022-12-17T05:50:18.131Z,101402.66
2022-12-17T05:53:03.899Z,101404.94
2022-12-17T05:55:50.043Z,101411.47
2022-12-17T05:58:35.891Z,101417.19
2022-12-17T06:01:24.453Z,101404.94
2022-12-17T06:04:10.886Z,101409.91
2022-12-17T06:06:58.315Z,101416.03
2022-12-17T06:09:44.367Z,101416.78
2022-12-17T06:12:30.224Z,101429.00
2022-12-17T06:15:15.837Z,101436.25
2022-12-17T06:18:01.944Z,101427.78
2022-12-17T06:20:47.754Z,101438.47
2022-12-17T06:23:43.325Z,101439.94
2022-12-17T06:26:29.482Z,101450.19
2022-12-17T06:29:15.404Z,101459.69
2022-12-17T06:32:01.775Z,101462.38
2022-12-17T06:34:47.732Z,101466.19
2022-12-17T06:37:33.750Z,101473.47
2022-12-17T06:40:21.536Z,101469.56
2022-12-17T06:43:13.885Z,101476.81
2022-12-17T06:45:59.547Z,101477.97
2022-12-17T06:48:45.766Z,101477.22
2022-12-17T06:51:31.463Z,101481.44
2022-12-17T06:54:17.489Z,101497.56
2022-12-17T06:57:04.930Z,101502.19
2022-12-17T06:59:49.764Z,101509.06
2022-12-17T07:02:36.132Z,101515.56
2022-12-17T07:05:22.633Z,101517.50
2022-12-17T07:08:15.406Z,101519.78
2022-12-17T07:11:01.520Z,101521.69
2022-12-17T07:13:49.006Z,101530.53
2022-12-17T07:16:35.253Z,101530.88
2022-12-17T07:19:26.829Z,101539.38
2022-12-17T07:22:15.604Z,101544.38
2022-12-17T07:25:03.370Z,101545.19
2022-12-17T07:27:49.547Z,101539.44
2022-12-17T07:30:36.741Z,101550.59
2022-12-17T07:33:24.186Z,101551.69
2022-12-17T07:36:11.901Z,101555.53
2022-12-17T07:39:01.256Z,101569.00
2022-12-17T07:41:47.244Z,101571.69
2022-12-17T07:44:33.444Z,101582.06
2022-12-17T07:47:21.364Z,101582.41
2022-12-17T07:50:07.458Z,101589.31
2022-12-17T07:52:53.703Z,101587.44
2022-12-17T07:55:40.177Z,101593.16
2022-12-17T07:58:28.844Z,101592.75
2022-12-17T08:01:18.233Z,101594.69
2022-12-17T08:04:05.890Z,101595.06
2022-12-17T08:06:55.130Z,101589.69
2022-12-17T08:09:45.306Z,101593.13
2022-12-17T08:12:31.079Z,101601.19
2022-12-17T08:15:16.855Z,101603.09
2022-12-17T08:18:03.177Z,101600.41
2022-12-17T08:20:50.523Z,101607.28
2022-12-17T08:23:38.991Z,101611.50
2022-12-17T08:26:24.436Z,101601.50
2022-12-17T08:29:10.430Z,101613.00
2022-12-17T08:31:57.570Z,101614.50
2022-12-17T08:34:58.257Z,101621.41
2022-12-17T08:37:45.475Z,101620.94
2022-12-17T08:40:31.325Z,101622.81
2022-12-17T08:43:17.294Z,101622.38
2022-12-17T08:46:05.866Z,101623.44
2022-12-17T08:48:52.171Z,101627.22
2022-12-17T08:51:38.519Z,101632.53
2022-12-17T08:54:25.723Z,101638.59
2022-12-17T08:57:11.828Z,101645.00
2022-12-17T08:59:57.716Z,101638.28
2022-12-17T09:02:44.369Z,101649.28
2022-12-17T09:05:32.078Z,101661.31
2022-12-17T09:08:18.674Z,101659.31
2022-12-17T09:11:17.743Z,101668.13
2022-12-17T09:14:03.689Z,101677.78
2022-12-17T09:17:01.436Z,101675.34
2022-12-17T09:19:48.395Z,101679.16
2022-12-17T09:22:34.180Z,101675.19
2022-12-17T09:25:20.017Z,101666.81
2022-12-17T09:28:07.419Z,101677.41
2022-12-17T09:30:53.142Z,101679.91
2022-12-17T09:33:39.426Z,101681.97
2022-12-17T09:36:26.823Z,101684.28
2022-12-17T09:39:12.634Z,101686.97
2022-12-17T09:42:10.393Z,101686.78
2022-12-17T09:45:05.880Z,101695.03
2022-12-17T09:48:00.798Z,101690.88
2022-12-17T09:50:58.704Z,101693.66
2022-12-17T09:53:51.147Z,101695.59
2022-12-17T09:56:42.199Z,101701.56
2022-12-17T09:59:35.476Z,101691.81
2022-12-17T10:02:32.258Z,101696.66
2022-12-17T10:05:20.859Z,101694.03
2022-12-17T10:08:08.823Z,101691.47
2022-12-17T10:10:59.321Z,101686.94
2022-12-17T10:13:44.994Z,101697.28
2022-12-17T10:16:46.718Z,101683.59
2022-12-17T10:19:56.427Z,101694.69
2022-12-17T10:22:42.544Z,101692.72
2022-12-17T10:25:49.720Z,101693.06
2022-12-17T10:28:38.760Z,101695.84
2022-12-17T10:31:29.199Z,101696.66
2022-12-17T10:34:16.352Z,101692.19
2022-12-17T10:37:09.609Z,101699.16
2022-12-17T10:39:56.687Z,101704.06
2022-12-17T10:42:46.430Z,101702.41
2022-12-17T10:45:44.002Z,101703.16
2022-12-17T10:48:40.052Z,101698.63
2022-12-17T10:51:49.910Z,101699.44
2022-12-17T10:54:48.962Z,101709.50
2022-12-17T10:57:44.587Z,101720.84
2022-12-17T11:00:49.306Z,101712.06
2022-12-17T11:03:47.169Z,101711.38
2022-12-17T11:06:42.193Z,101712.97
2022-12-17T11:09:37.511Z,101718.41
2022-12-17T11:12:30.742Z,101724.66
2022-12-17T11:15:23.098Z,101731.41
2022-12-17T11:18:11.808Z,101733.59
2022-12-17T11:21:09.832Z,101738.84
2022-12-17T11:24:01.264Z,101741.06
2022-12-17T11:26:51.430Z,101739.38
2022-12-17T11:29:38.767Z,101738.34
2022-12-17T11:33:03.435Z,101745.78
2022-12-17T11:35:59.498Z,101746.00
2022-12-17T11:38:58.482Z,101744.34
2022-12-17T11:41:54.212Z,101742.38
2022-12-17T11:44:55.112Z,101742.16
2022-12-17T11:47:49.425Z,101744.56
2022-12-17T11:50:45.356Z,101753.00
2022-12-17T11:54:04.777Z,101757.44
2022-12-17T11:56:56.968Z,101754.00
2022-12-17T11:59:53.445Z,101749.03
2022-12-17T12:02:59.619Z,101756.97
2022-12-17T12:05:56.975Z,101747.56
2022-12-17T12:08:46.179Z,101752.28
2022-12-17T12:11:43.010Z,101742.69
2022-12-17T12:14:41.869Z,101746.72
2022-12-17T12:17:42.053Z,101741.72
2022-12-17T12:20:37.891Z,101745.03
2022-12-17T12:23:36.848Z,101741.06
2022-12-17T12:26:32.606Z,101744.22
2022-12-17T12:29:30.283Z,101734.44
2022-12-17T12:32:26.489Z,101734.22
2022-12-17T12:35:16.374Z,101734.16
2022-12-17T12:38:03.944Z,101737.47
2022-12-17T12:40:57.075Z,101736.75
2022-12-17T12:43:48.068Z,101734.94
2022-12-17T12:46:39.657Z,101734.91
2022-12-17T12:49:36.329Z,101735.09
2022-12-17T12:52:24.615Z,101742.66
2022-12-17T12:55:23.911Z,101736.50
2022-12-17T12:58:17.501Z,101731.97
2022-12-17T13:01:14.009Z,101724.47
2022-12-17T13:04:12.164Z,101720.41
2022-12-17T13:06:55.147Z,101723.41
2022-12-17T13:09:40.773Z,101726.69
2022-12-17T13:12:21.772Z,101729.50
2022-12-17T13:14:56.542Z,101727.75
2022-12-17T13:17:46.957Z,101724.41
2022-12-17T13:20:37.823Z,101720.38
2022-12-17T13:23:19.200Z,101707.06
2022-12-17T13:25:51.580Z,101712.00
2022-12-17T13:28:28.702Z,101710.78
2022-12-17T13:31:04.956Z,101710.16
2022-12-17T13:33:43.787Z,101710.44
2022-12-17T13:36:18.953Z,101705.28
2022-12-17T13:38:55.689Z,101709.94
2022-12-17T13:41:32.498Z,101713.88
2022-12-17T13:44:04.133Z,101702.97
2022-12-17T13:46:46.684Z,101697.31
2022-12-17T13:49:19.826Z,101691.25
2022-12-17T13:52:03.296Z,101691.44
2022-12-17T13:54:39.702Z,101688.09
2022-12-17T13:57:11.350Z,101698.13
2022-12-17T13:59:39.749Z,101697.44
2022-12-17T14:02:14.592Z,101702.84
2022-12-17T14:04:43.606Z,101708.94
2022-12-17T14:07:13.265Z,101712.84
2022-12-17T14:09:44.701Z,101714.59
2022-12-17T14:12:23.519Z,101719.19
2022-12-17T14:14:57.111Z,101720.28
2022-12-17T14:17:27.518Z,101724.09
2022-12-17T14:20:03.253Z,101717.50
2022-12-17T14:22:36.392Z,101718.94
2022-12-17T14:25:20.240Z,101726.13
2022-12-17T14:27:57.283Z,101728.69
2022-12-17T14:30:46.279Z,101716.47
2022-12-17T14:33:30.088Z,101718.88
2022-12-17T14:36:03.090Z,101723.72
2022-12-17T14:38:38.471Z,101726.91
2022-12-17T14:41:26.752Z,101725.78
2022-12-17T14:44:01.664Z,101739.69
2022-12-17T14:46:32.265Z,101746.25
2022-12-17T14:49:03.970Z,101741.72
2022-12-17T14:51:39.013Z,101746.31
2022-12-17T14:54:17.861Z,101741.59
2022-12-17T14:56:48.073Z,101754.56
2022-12-17T14:59:33.162Z,101758.09
2022-12-17T15:02:05.482Z,101758.81
2022-12-17T15:04:35.220Z,101758.53
2022-12-17T15:07:07.139Z,101755.84
2022-12-17T15:09:37.380Z,101757.81
2022-12-17T15:12:06.774Z,101764.22
2022-12-17T15:14:36.690Z,101752.88
2022-12-17T15:17:06.151Z,101763.38
2022-12-17T15:19:34.264Z,101760.25
2022-12-17T15:22:04.628Z,101762.13
2022-12-17T15:24:33.877Z,101759.72
2022-12-17T15:27:02.299Z,101774.03
2022-12-17T15:29:32.175Z,101779.75
2022-12-17T15:32:02.560Z,101785.50
2022-12-17T15:34:31.213Z,101782.78
2022-12-17T15:36:59.697Z,101785.91
2022-12-17T15:39:30.897Z,101791.63
2022-12-17T15:42:17.486Z,101785.84
2022-12-17T15:44:47.360Z,101792.00
2022-12-17T15:47:18.037Z,101782.97
2022-12-17T15:49:48.180Z,101795.00
2022-12-17T15:52:18.303Z,101796.53
2022-12-17T15:54:46.579Z,101784.16
2022-12-17T15:57:18.555Z,101790.75
2022-12-17T15:59:47.372Z,101791.88
2022-12-17T16:02:17.353Z,101793.31
2022-12-17T16:04:47.992Z,101797.66
2022-12-17T16:07:17.215Z,101801.25
2022-12-17T16:09:46.175Z,101794.28
2022-12-17T16:12:15.028Z,101795.44
2022-12-17T16:14:44.130Z,101791.88
2022-12-17T16:17:12.478Z,101783.03
2022-12-17T16:19:42.388Z,101795.63
2022-12-17T16:22:10.701Z,101792.56
2022-12-17T16:24:40.817Z,101783.31
2022-12-17T16:27:10.462Z,101792.47
2022-12-17T16:29:39.005Z,101789.41
2022-12-17T16:32:07.571Z,101792.09
2022-12-17T16:34:38.364Z,101792.47
2022-12-17T16:37:08.528Z,101799.38
2022-12-17T16:39:36.945Z,101797.84
2022-12-17T16:42:06.304Z,101805.13
2022-12-17T16:44:35.902Z,101805.81
2022-12-17T16:47:05.835Z,101804.69
2022-12-17T16:49:34.505Z,101798.91
2022-12-17T16:52:04.423Z,101804.69
2022-12-17T16:54:34.856Z,101799.66
2022-12-17T16:57:04.122Z,101803.84
2022-12-17T16:59:32.467Z,101810.69
2022-12-17T17:02:01.171Z,101811.47
2022-12-17T17:04:29.843Z,101818.53
2022-12-17T17:06:58.813Z,101821.03
2022-12-17T17:09:27.570Z,101824.38
2022-12-17T17:11:58.810Z,101827.06
2022-12-17T17:14:27.610Z,101827.78
2022-12-17T17:16:56.024Z,101829.28
2022-12-17T17:19:24.374Z,101833.47
2022-12-17T17:21:54.616Z,101826.81
2022-12-17T17:24:25.922Z,101829.88
2022-12-17T17:26:57.463Z,101826.00
2022-12-17T17:29:25.669Z,101823.34
2022-12-17T17:32:09.758Z,101830.63
2022-12-17T17:34:39.898Z,101826.78
2022-12-17T17:37:09.478Z,101826.00
2022-12-17T17:39:41.354Z,101822.88
2022-12-17T17:42:12.610Z,101823.31
2022-12-17T17:44:41.665Z,101824.00
2022-12-17T17:47:12.224Z,101823.72
2022-12-17T17:49:41.853Z,101819.22
2022-12-17T17:52:12.047Z,101838.88
2022-12-17T17:54:41.418Z,101838.78
2022-12-17T17:57:10.162Z,101843.91
2022-12-17T17:59:40.844Z,101853.63
2022-12-17T18:02:11.920Z,101858.19
2022-12-17T18:04:42.086Z,101862.06
2022-12-17T18:07:27.202Z,101854.25
2022-12-17T18:09:56.984Z,101853.13
2022-12-17T18:12:42.855Z,101857.03
2022-12-17T18:15:15.343Z,101863.91
2022-12-17T18:17:45.239Z,101861.72
2022-12-17T18:20:13.771Z,101876.00
2022-12-17T18:22:42.432Z,101883.31
2022-12-17T18:25:10.736Z,101873.25
2022-12-17T18:27:40.847Z,101886.00
2022-12-17T18:30:10.967Z,101879.41
2022-12-17T18:32:41.296Z,101877.91
2022-12-17T18:35:11.164Z,101872.13
2022-12-17T18:37:41.593Z,101871.72
2022-12-17T18:40:11.005Z,101880.94
2022-12-17T18:43:06.164Z,101878.97
2022-12-17T18:45:38.470Z,101873.50
2022-12-17T18:48:08.639Z,101881.22
2022-12-17T18:50:40.377Z,101885.50
2022-12-17T18:53:08.702Z,101878.16
2022-12-17T18:55:40.511Z,101876.84
2022-12-17T18:58:10.418Z,101868.00
2022-12-17T19:00:40.454Z,101872.34
2022-12-17T19:03:14.795Z,101876.50
2022-12-17T19:05:46.436Z,101880.69
2022-12-17T19:08:16.077Z,101885.88
2022-12-17T19:10:44.375Z,101881.38
2022-12-17T19:13:13.301Z,101873.63
2022-12-17T19:15:42.271Z,101879.44
2022-12-17T19:18:14.535Z,101874.78
2022-12-17T19:20:42.770Z,101879.94
2022-12-17T19:23:11.241Z,101885.31
2022-12-17T19:25:42.327Z,101878.03
2022-12-17T19:28:10.601Z,101873.84
2022-12-17T19:30:39.266Z,101882.63
2022-12-17T19:33:08.662Z,101884.56
2022-12-17T19:35:40.484Z,101885.00
2022-12-17T19:38:11.277Z,101886.19
2022-12-17T19:40:40.020Z,101875.34
2022-12-17T19:43:08.310Z,101882.63
2022-12-17T19:45:36.934Z,101886.44
2022-12-17T19:48:07.897Z,101886.72
2022-12-17T19:50:38.739Z,101896.25
2022-12-17T19:53:08.472Z,101891.34
2022-12-17T19:55:36.969Z,101886.66
2022-12-17T19:58:06.042Z,101896.25
2022-12-17T20:00:36.770Z,101884.38
2022-12-17T20:03:05.485Z,101890.94
2022-12-17T20:05:34.045Z,101888.53
2022-12-17T20:08:04.317Z,101896.09
2022-12-17T20:10:34.478Z,101896.97
2022-12-17T20:13:03.645Z,101903.91
2022-12-17T20:15:32.247Z,101899.38
2022-12-17T20:18:00.427Z,101898.97
2022-12-17T20:20:29.152Z,101897.44
2022-12-17T20:22:58.084Z,101900.13
2022-12-17T20:25:27.197Z,101906.28
2022-12-17T20:27:56.991Z,101910.88
2022-12-17T20:30:25.208Z,101917.38
2022-12-17T20:32:54.776Z,101920.47
2022-12-17T20:35:22.802Z,101907.03
2022-12-17T20:37:57.142Z,101904.28
2022-12-17T20:40:27.775Z,101915.09
2022-12-17T20:42:57.552Z,101920.03
2022-12-17T20:45:27.712Z,101920.41
2022-12-17T20:47:56.587Z,101918.09
2022-12-17T20:50:26.375Z,101922.72
2022-12-17T20:52:55.019Z,101912.69
2022-12-17T20:55:31.133Z,101916.56
2022-12-17T20:58:02.652Z,101917.66
2022-12-17T21:00:30.983Z,101919.25
2022-12-17T21:02:59.545Z,101913.31
2022-12-17T21:05:28.029Z,101908.88
2022-12-17T21:07:56.273Z,101908.50
2022-12-17T21:10:25.919Z,101904.97
2022-12-17T21:13:12.140Z,101897.44
2022-12-17T21:15:49.547Z,101903.75
2022-12-17T21:18:18.037Z,101915.69
2022-12-17T21:20:57.648Z,101921.88
2022-12-17T21:23:29.080Z,101926.16
2022-12-17T21:26:03.571Z,101938.19
2022-12-17T21:28:39.026Z,101940.53
2022-12-17T21:31:16.824Z,101947.81
2022-12-17T21:33:45.101Z,101950.94
2022-12-17T21:36:14.621Z,101944.84
2022-12-17T21:38:43.754Z,101941.81
2022-12-17T21:41:15.916Z,101937.63
2022-12-17T21:43:44.308Z,101943.41
2022-12-17T21:46:15.214Z,101934.56
2022-12-17T21:48:44.714Z,101937.63
2022-12-17T21:51:14.346Z,101946.81
2022-12-17T21:53:44.663Z,101951.09
2022-12-17T21:56:15.342Z,101954.22
2022-12-17T21:58:48.601Z,101951.88
2022-12-17T22:01:22.736Z,101957.72
2022-12-17T22:03:53.732Z,101952.75
2022-12-17T22:06:27.978Z,101956.16
2022-12-17T22:09:01.270Z,101954.25
2022-12-17T22:11:38.355Z,101951.19
2022-12-17T22:14:09.447Z,101942.78
2022-12-17T22:16:42.816Z,101933.19
2022-12-17T22:19:13.829Z,101931.31
2022-12-17T22:21:45.090Z,101934.75
2022-12-17T22:24:16.010Z,101926.66
2022-12-17T22:26:44.851Z,101937.75
2022-12-17T22:29:33.832Z,101929.69
2022-12-17T22:32:23.123Z,101932.78
2022-12-17T22:35:36.457Z,101926.25
2022-12-17T22:41:05.156Z,101928.16
2022-12-17T22:44:30.217Z,101941.22
2022-12-17T22:44:44.418Z,101948.13
2022-12-17T22:46:23.337Z,101938.53
2022-12-17T22:48:53.062Z,101945.41
2022-12-17T22:51:36.335Z,101945.78
2022-12-17T22:54:08.393Z,101948.94
2022-12-17T22:57:02.908Z,101946.25
2022-12-17T22:59:27.476Z,101949.38
2022-12-17T23:01:56.316Z,101944.44
2022-12-17T23:04:26.038Z,101944.44
2022-12-17T23:06:54.949Z,101939.41
2022-12-17T23:09:24.137Z,101937.91
2022-12-17T23:11:53.008Z,101944.06
2022-12-17T23:14:21.341Z,101942.16
2022-12-17T23:16:49.609Z,101932.94
2022-12-17T23:19:18.232Z,101941.66
2022-12-17T23:21:47.687Z,101946.69
2022-12-17T23:24:16.086Z,101944.47
2022-12-17T23:26:44.513Z,101948.31
2022-12-17T23:29:19.360Z,101948.34
2022-12-17T23:31:48.379Z,101941.47
2022-12-17T23:34:17.050Z,101945.66
2022-12-17T23:36:45.221Z,101947.56
2022-12-17T23:39:14.992Z,101951.06
2022-12-17T23:41:43.379Z,101951.81
2022-12-17T23:44:11.608Z,101946.06
2022-12-17T23:46:40.252Z,101949.53
2022-12-17T23:49:09.957Z,101958.72
2022-12-17T23:51:38.935Z,101958.34
2022-12-17T23:54:07.555Z,101964.13
2022-12-17T23:56:37.611Z,101957.94
2022-12-17T23:59:09.842Z,101956.00
